Shoal Creek (Missouri), Joplin (07187000)

StateMissouriCurrentGood (573 cfs)
RiverShoal CreekFlood - The river is flooding. Obstacles can be treacherous or deadly. The river should be avoided at this stage for casual trips and definitely for the inexperienced. Trips should be attempted only with protective gear and equipment.Flood(none)
Updated2019-12-13 19:00 (1 hour ago)High - The river is high and potentially dangerous, especially for the young and / or inexperienced. Normal stream obstacles are sometimes difficult to navigate. Extended distances can be attempted, but canoe travel may not be advisable.High(none)
Discharge573 cfs (median: 198 cfs)Good - Conditions are ideal for a canoe or kayak. Boats typically will drag on fewer than one-quarter of riffles, if at all, and portages are unnecessary or rare. Normal float lengths can be attempted without a problem.Good160
Height3.13 feetLow - River is low but can still be floated. Some riffles are okay but most come with significant dragging and might need a portage. Float lengths should be reduced to accommodate low flow, dragging, and portages.Low(none)
TrendRising (steady over 24 hours)Poor - River is too low to float comfortably. Most or all riffles will drag or must be portaged and some obstacles (such as slick shelf rock) cause undue problems. Avoid the river at this stage for casual paddling trips.Poor(none)
USGSExternal icon USGS Site for Joplin (07187000)LocationExternal icon Google Maps

Trending Data

Plot Image
ObservationHeightDischargeMaximum
Discharge
Minimum
Discharge
Mean
Discharge
P05P10P20P25P50
(Median)
P75P80P90P95
2019-12-13 19:00 3.13 573 1830 (1986) 58 (1954) 321 67 86 102 113 198 382 519 767 1100
2019-12-13 18:00 3.10 560 1830 (1986) 58 (1954) 321 67 86 102 113 198 382 519 767 1100
2019-12-13 17:00 3.13 573 1830 (1986) 58 (1954) 321 67 86 102 113 198 382 519 767 1100
2019-12-13 16:00 3.12 569 1830 (1986) 58 (1954) 321 67 86 102 113 198 382 519 767 1100
2019-12-13 15:00 3.09 555 1830 (1986) 58 (1954) 321 67 86 102 113 198 382 519 767 1100
2019-12-13 14:00 3.07 546 1830 (1986) 58 (1954) 321 67 86 102 113 198 382 519 767 1100
2019-12-13 13:00 3.12 569 1830 (1986) 58 (1954) 321 67 86 102 113 198 382 519 767 1100
2019-12-13 12:00 3.07 546 1830 (1986) 58 (1954) 321 67 86 102 113 198 382 519 767 1100
2019-12-12 21:00 3.12 569 2270 (1986) 66 (1954) 316 68 85 104 108 196 387 480 681 1000
2019-12-12 20:00 3.12 569 2270 (1986) 66 (1954) 316 68 85 104 108 196 387 480 681 1000
2019-12-12 19:00 3.16 587 2270 (1986) 66 (1954) 316 68 85 104 108 196 387 480 681 1000
2019-12-12 18:00 3.13 573 2270 (1986) 66 (1954) 316 68 85 104 108 196 387 480 681 1000
2019-12-12 17:00 3.18 597 2270 (1986) 66 (1954) 316 68 85 104 108 196 387 480 681 1000
2019-12-12 16:00 3.15 583 2270 (1986) 66 (1954) 316 68 85 104 108 196 387 480 681 1000
2019-12-12 15:00 3.18 597 2270 (1986) 66 (1954) 316 68 85 104 108 196 387 480 681 1000
2019-12-12 14:00 3.14 578 2270 (1986) 66 (1954) 316 68 85 104 108 196 387 480 681 1000
2019-12-12 13:00 3.15 583 2270 (1986) 66 (1954) 316 68 85 104 108 196 387 480 681 1000
2019-12-12 12:00 3.11 564 2270 (1986) 66 (1954) 316 68 85 104 108 196 387 480 681 1000
2019-12-12 11:00 3.13 573 2270 (1986) 66 (1954) 316 68 85 104 108 196 387 480 681 1000
2019-12-12 10:00 3.17 592 2270 (1986) 66 (1954) 316 68 85 104 108 196 387 480 681 1000
2019-12-12 09:00 3.14 578 2270 (1986) 66 (1954) 316 68 85 104 108 196 387 480 681 1000
2019-12-12 08:00 3.18 597 2270 (1986) 66 (1954) 316 68 85 104 108 196 387 480 681 1000
2019-12-12 07:00 3.18 597 2270 (1986) 66 (1954) 316 68 85 104 108 196 387 480 681 1000
2019-12-12 06:00 3.16 587 2270 (1986) 66 (1954) 316 68 85 104 108 196 387 480 681 1000
2019-12-12 05:00 3.17 592 2270 (1986) 66 (1954) 316 68 85 104 108 196 387 480 681 1000
2019-12-12 04:00 3.22 615 2270 (1986) 66 (1954) 316 68 85 104 108 196 387 480 681 1000
2019-12-12 03:00 3.21 611 2270 (1986) 66 (1954) 316 68 85 104 108 196 387 480 681 1000
2019-12-12 02:00 3.19 601 2270 (1986) 66 (1954) 316 68 85 104 108 196 387 480 681 1000
2019-12-12 01:00 3.18 597 2270 (1986) 66 (1954) 316 68 85 104 108 196 387 480 681 1000
2019-12-12 00:00 3.19 601 2270 (1986) 66 (1954) 316 68 85 104 108 196 387 480 681 1000
2019-12-11 23:00 3.17 592 2240 (1986) 60 (1954) 327 70 81 103 107 193 381 416 728 1260
2019-12-11 22:00 3.20 606 2240 (1986) 60 (1954) 327 70 81 103 107 193 381 416 728 1260
2019-12-11 21:00 3.15 583 2240 (1986) 60 (1954) 327 70 81 103 107 193 381 416 728 1260
2019-12-11 20:00 3.18 597 2240 (1986) 60 (1954) 327 70 81 103 107 193 381 416 728 1260
2019-12-11 19:00 3.18 597 2240 (1986) 60 (1954) 327 70 81 103 107 193 381 416 728 1260
2019-12-11 18:00 3.20 606 2240 (1986) 60 (1954) 327 70 81 103 107 193 381 416 728 1260
2019-12-11 17:00 3.22 615 2240 (1986) 60 (1954) 327 70 81 103 107 193 381 416 728 1260
2019-12-11 16:00 3.22 615 2240 (1986) 60 (1954) 327 70 81 103 107 193 381 416 728 1260
2019-12-11 15:00 3.21 611 2240 (1986) 60 (1954) 327 70 81 103 107 193 381 416 728 1260
2019-12-11 14:00 3.18 597 2240 (1986) 60 (1954) 327 70 81 103 107 193 381 416 728 1260
2019-12-11 13:00 3.17 592 2240 (1986) 60 (1954) 327 70 81 103 107 193 381 416 728 1260
2019-12-11 12:00 3.17 592 2240 (1986) 60 (1954) 327 70 81 103 107 193 381 416 728 1260
2019-12-11 11:00 3.25 630 2240 (1986) 60 (1954) 327 70 81 103 107 193 381 416 728 1260
2019-12-11 10:00 3.18 597 2240 (1986) 60 (1954) 327 70 81 103 107 193 381 416 728 1260
2019-12-11 09:00 3.23 620 2240 (1986) 60 (1954) 327 70 81 103 107 193 381 416 728 1260
2019-12-11 08:00 3.22 615 2240 (1986) 60 (1954) 327 70 81 103 107 193 381 416 728 1260
2019-12-11 07:00 3.25 630 2240 (1986) 60 (1954) 327 70 81 103 107 193 381 416 728 1260
2019-12-11 06:00 3.25 630 2240 (1986) 60 (1954) 327 70 81 103 107 193 381 416 728 1260
2019-12-11 05:00 3.21 611 2240 (1986) 60 (1954) 327 70 81 103 107 193 381 416 728 1260
2019-12-11 04:00 3.21 611 2240 (1986) 60 (1954) 327 70 81 103 107 193 381 416 728 1260
2019-12-11 03:00 3.23 620 2240 (1986) 60 (1954) 327 70 81 103 107 193 381 416 728 1260
2019-12-11 02:00 3.21 611 2240 (1986) 60 (1954) 327 70 81 103 107 193 381 416 728 1260
2019-12-11 01:00 3.26 634 2240 (1986) 60 (1954) 327 70 81 103 107 193 381 416 728 1260
2019-12-11 00:00 3.27 639 2240 (1986) 60 (1954) 327 70 81 103 107 193 381 416 728 1260
2019-12-10 23:00 3.28 644 1420 (1974) 56 (1964) 303 72 84 103 107 190 352 415 685 1140
2019-12-10 22:00 3.26 634 1420 (1974) 56 (1964) 303 72 84 103 107 190 352 415 685 1140
2019-12-10 21:00 3.23 620 1420 (1974) 56 (1964) 303 72 84 103 107 190 352 415 685 1140
2019-12-10 20:00 3.28 644 1420 (1974) 56 (1964) 303 72 84 103 107 190 352 415 685 1140
2019-12-10 19:00 3.26 634 1420 (1974) 56 (1964) 303 72 84 103 107 190 352 415 685 1140
2019-12-10 18:00 3.27 639 1420 (1974) 56 (1964) 303 72 84 103 107 190 352 415 685 1140
2019-12-10 17:00 3.23 620 1420 (1974) 56 (1964) 303 72 84 103 107 190 352 415 685 1140
2019-12-10 16:00 3.23 620 1420 (1974) 56 (1964) 303 72 84 103 107 190 352 415 685 1140
2019-12-10 15:00 3.28 644 1420 (1974) 56 (1964) 303 72 84 103 107 190 352 415 685 1140
2019-12-10 14:00 3.25 630 1420 (1974) 56 (1964) 303 72 84 103 107 190 352 415 685 1140
2019-12-10 13:00 3.26 634 1420 (1974) 56 (1964) 303 72 84 103 107 190 352 415 685 1140
2019-12-10 12:00 3.30 654 1420 (1974) 56 (1964) 303 72 84 103 107 190 352 415 685 1140
2019-12-10 11:00 3.29 649 1420 (1974) 56 (1964) 303 72 84 103 107 190 352 415 685 1140
2019-12-10 10:00 3.28 644 1420 (1974) 56 (1964) 303 72 84 103 107 190 352 415 685 1140
2019-12-10 09:00 3.30 654 1420 (1974) 56 (1964) 303 72 84 103 107 190 352 415 685 1140
2019-12-10 08:00 3.29 649 1420 (1974) 56 (1964) 303 72 84 103 107 190 352 415 685 1140
2019-12-10 07:00 3.30 654 1420 (1974) 56 (1964) 303 72 84 103 107 190 352 415 685 1140
2019-12-10 06:00 3.32 663 1420 (1974) 56 (1964) 303 72 84 103 107 190 352 415 685 1140
2019-12-10 05:00 3.32 663 1420 (1974) 56 (1964) 303 72 84 103 107 190 352 415 685 1140
2019-12-10 04:00 3.28 644 1420 (1974) 56 (1964) 303 72 84 103 107 190 352 415 685 1140
2019-12-10 03:00 3.32 663 1420 (1974) 56 (1964) 303 72 84 103 107 190 352 415 685 1140
2019-12-10 02:00 3.33 668 1420 (1974) 56 (1964) 303 72 84 103 107 190 352 415 685 1140
2019-12-10 01:00 3.32 663 1420 (1974) 56 (1964) 303 72 84 103 107 190 352 415 685 1140
2019-12-10 00:00 3.34 673 1420 (1974) 56 (1964) 303 72 84 103 107 190 352 415 685 1140
2019-12-09 23:00 3.34 673 1620 (1974) 56 (1964) 285 72 80 98 103 185 323 420 623 921
2019-12-09 22:00 3.35 678 1620 (1974) 56 (1964) 285 72 80 98 103 185 323 420 623 921
2019-12-09 21:00 3.31 658 1620 (1974) 56 (1964) 285 72 80 98 103 185 323 420 623 921
2019-12-09 20:00 3.36 683 1620 (1974) 56 (1964) 285 72 80 98 103 185 323 420 623 921
2019-12-09 19:00 3.33 668 1620 (1974) 56 (1964) 285 72 80 98 103 185 323 420 623 921
2019-12-09 18:00 3.31 658 1620 (1974) 56 (1964) 285 72 80 98 103 185 323 420 623 921
2019-12-09 17:00 3.31 658 1620 (1974) 56 (1964) 285 72 80 98 103 185 323 420 623 921
2019-12-09 16:00 3.34 673 1620 (1974) 56 (1964) 285 72 80 98 103 185 323 420 623 921
2019-12-09 15:00 3.38 693 1620 (1974) 56 (1964) 285 72 80 98 103 185 323 420 623 921
2019-12-09 14:00 3.35 678 1620 (1974) 56 (1964) 285 72 80 98 103 185 323 420 623 921
2019-12-09 13:00 3.35 678 1620 (1974) 56 (1964) 285 72 80 98 103 185 323 420 623 921
2019-12-09 12:00 3.38 693 1620 (1974) 56 (1964) 285 72 80 98 103 185 323 420 623 921
2019-12-09 11:00 3.40 702 1620 (1974) 56 (1964) 285 72 80 98 103 185 323 420 623 921
2019-12-09 10:00 3.33 668 1620 (1974) 56 (1964) 285 72 80 98 103 185 323 420 623 921
2019-12-09 09:00 3.39 697 1620 (1974) 56 (1964) 285 72 80 98 103 185 323 420 623 921
2019-12-09 08:00 3.37 688 1620 (1974) 56 (1964) 285 72 80 98 103 185 323 420 623 921
2019-12-09 07:00 3.36 683 1620 (1974) 56 (1964) 285 72 80 98 103 185 323 420 623 921
2019-12-09 06:00 3.38 693 1620 (1974) 56 (1964) 285 72 80 98 103 185 323 420 623 921
2019-12-09 05:00 3.36 683 1620 (1974) 56 (1964) 285 72 80 98 103 185 323 420 623 921
2019-12-09 04:00 3.36 683 1620 (1974) 56 (1964) 285 72 80 98 103 185 323 420 623 921
2019-12-09 03:00 3.42 712 1620 (1974) 56 (1964) 285 72 80 98 103 185 323 420 623 921
2019-12-09 02:00 3.41 707 1620 (1974) 56 (1964) 285 72 80 98 103 185 323 420 623 921
2019-12-09 01:00 3.41 707 1620 (1974) 56 (1964) 285 72 80 98 103 185 323 420 623 921
2019-12-09 00:00 3.37 688 1620 (1974) 56 (1964) 285 72 80 98 103 185 323 420 623 921
2019-12-08 23:00 3.43 717 1850 (1974) 55 (1964) 293 73 78 99 106 186 322 409 654 989
2019-12-08 22:00 3.38 693 1850 (1974) 55 (1964) 293 73 78 99 106 186 322 409 654 989
2019-12-08 21:00 3.38 693 1850 (1974) 55 (1964) 293 73 78 99 106 186 322 409 654 989
2019-12-08 20:00 3.41 707 1850 (1974) 55 (1964) 293 73 78 99 106 186 322 409 654 989
2019-12-08 19:00 688 1850 (1974) 55 (1964) 293 73 78 99 106 186 322 409 654 989
2019-12-08 18:00 3.41 707 1850 (1974) 55 (1964) 293 73 78 99 106 186 322 409 654 989
2019-12-08 17:00 3.37 688 1850 (1974) 55 (1964) 293 73 78 99 106 186 322 409 654 989
2019-12-08 16:00 3.41 707 1850 (1974) 55 (1964) 293 73 78 99 106 186 322 409 654 989
2019-12-08 15:00 3.36 683 1850 (1974) 55 (1964) 293 73 78 99 106 186 322 409 654 989
2019-12-08 14:00 3.38 693 1850 (1974) 55 (1964) 293 73 78 99 106 186 322 409 654 989
2019-12-08 13:00 3.44 722 1850 (1974) 55 (1964) 293 73 78 99 106 186 322 409 654 989
2019-12-08 12:00 3.43 717 1850 (1974) 55 (1964) 293 73 78 99 106 186 322 409 654 989
2019-12-08 11:00 3.43 717 1850 (1974) 55 (1964) 293 73 78 99 106 186 322 409 654 989
2019-12-08 10:00 3.42 712 1850 (1974) 55 (1964) 293 73 78 99 106 186 322 409 654 989
2019-12-08 09:00 3.41 707 1850 (1974) 55 (1964) 293 73 78 99 106 186 322 409 654 989
2019-12-08 08:00 3.39 697 1850 (1974) 55 (1964) 293 73 78 99 106 186 322 409 654 989
2019-12-08 07:00 3.41 707 1850 (1974) 55 (1964) 293 73 78 99 106 186 322 409 654 989
2019-12-08 06:00 3.41 707 1850 (1974) 55 (1964) 293 73 78 99 106 186 322 409 654 989
2019-12-08 05:00 3.41 707 1850 (1974) 55 (1964) 293 73 78 99 106 186 322 409 654 989
2019-12-08 04:00 3.46 732 1850 (1974) 55 (1964) 293 73 78 99 106 186 322 409 654 989
2019-12-08 03:00 3.42 712 1850 (1974) 55 (1964) 293 73 78 99 106 186 322 409 654 989
2019-12-08 02:00 3.42 712 1850 (1974) 55 (1964) 293 73 78 99 106 186 322 409 654 989
2019-12-08 01:00 3.46 732 1850 (1974) 55 (1964) 293 73 78 99 106 186 322 409 654 989
2019-12-08 00:00 3.42 712 1850 (1974) 55 (1964) 293 73 78 99 106 186 322 409 654 989
2019-12-07 23:00 3.42 712 2210 (1974) 55 (1964) 309 69 76 99 104 192 336 442 679 1130
2019-12-07 22:00 3.48 743 2210 (1974) 55 (1964) 309 69 76 99 104 192 336 442 679 1130
2019-12-07 21:00 3.41 707 2210 (1974) 55 (1964) 309 69 76 99 104 192 336 442 679 1130
2019-12-07 20:00 3.48 743 2210 (1974) 55 (1964) 309 69 76 99 104 192 336 442 679 1130
2019-12-07 19:00 3.43 717 2210 (1974) 55 (1964) 309 69 76 99 104 192 336 442 679 1130
2019-12-07 18:00 3.48 743 2210 (1974) 55 (1964) 309 69 76 99 104 192 336 442 679 1130
2019-12-07 17:00 3.48 743 2210 (1974) 55 (1964) 309 69 76 99 104 192 336 442 679 1130
2019-12-07 16:00 3.49 748 2210 (1974) 55 (1964) 309 69 76 99 104 192 336 442 679 1130
2019-12-07 15:00 3.42 712 2210 (1974) 55 (1964) 309 69 76 99 104 192 336 442 679 1130
2019-12-07 14:00 3.45 727 2210 (1974) 55 (1964) 309 69 76 99 104 192 336 442 679 1130
2019-12-07 13:00 3.45 727 2210 (1974) 55 (1964) 309 69 76 99 104 192 336 442 679 1130
2019-12-07 12:00 3.44 722 2210 (1974) 55 (1964) 309 69 76 99 104 192 336 442 679 1130
2019-12-07 11:00 3.46 732 2210 (1974) 55 (1964) 309 69 76 99 104 192 336 442 679 1130
2019-12-07 10:00 3.50 753 2210 (1974) 55 (1964) 309 69 76 99 104 192 336 442 679 1130
2019-12-07 09:00 3.49 748 2210 (1974) 55 (1964) 309 69 76 99 104 192 336 442 679 1130
2019-12-07 08:00 3.48 743 2210 (1974) 55 (1964) 309 69 76 99 104 192 336 442 679 1130
2019-12-07 07:00 3.48 743 2210 (1974) 55 (1964) 309 69 76 99 104 192 336 442 679 1130
2019-12-07 06:00 3.51 758 2210 (1974) 55 (1964) 309 69 76 99 104 192 336 442 679 1130
2019-12-07 05:00 3.52 763 2210 (1974) 55 (1964) 309 69 76 99 104 192 336 442 679 1130
2019-12-07 04:00 3.49 748 2210 (1974) 55 (1964) 309 69 76 99 104 192 336 442 679 1130
2019-12-07 03:00 3.53 768 2210 (1974) 55 (1964) 309 69 76 99 104 192 336 442 679 1130
2019-12-07 02:00 3.51 758 2210 (1974) 55 (1964) 309 69 76 99 104 192 336 442 679 1130
2019-12-07 01:00 3.57 789 2210 (1974) 55 (1964) 309 69 76 99 104 192 336 442 679 1130
2019-12-07 00:00 3.50 753 2210 (1974) 55 (1964) 309 69 76 99 104 192 336 442 679 1130
2019-12-06 23:00 3.55 778 2850 (1974) 55 (1964) 315 68 78 104 106 194 344 461 728 883
2019-12-06 22:00 3.56 783 2850 (1974) 55 (1964) 315 68 78 104 106 194 344 461 728 883
2019-12-06 21:00 3.51 758 2850 (1974) 55 (1964) 315 68 78 104 106 194 344 461 728 883
2019-12-06 20:00 3.52 763 2850 (1974) 55 (1964) 315 68 78 104 106 194 344 461 728 883
2019-12-06 19:00 3.57 789 2850 (1974) 55 (1964) 315 68 78 104 106 194 344 461 728 883
2019-12-06 18:00 3.58 794 2850 (1974) 55 (1964) 315 68 78 104 106 194 344 461 728 883
2019-12-06 17:00 3.54 773 2850 (1974) 55 (1964) 315 68 78 104 106 194 344 461 728 883
2019-12-06 16:00 3.53 768 2850 (1974) 55 (1964) 315 68 78 104 106 194 344 461 728 883
2019-12-06 15:00 3.58 794 2850 (1974) 55 (1964) 315 68 78 104 106 194 344 461 728 883
2019-12-06 14:00 3.59 799 2850 (1974) 55 (1964) 315 68 78 104 106 194 344 461 728 883
2019-12-06 13:00 3.57 789 2850 (1974) 55 (1964) 315 68 78 104 106 194 344 461 728 883
2019-12-06 12:00 3.56 783 2850 (1974) 55 (1964) 315 68 78 104 106 194 344 461 728 883
2019-12-06 11:00 3.56 783 2850 (1974) 55 (1964) 315 68 78 104 106 194 344 461 728 883
2019-12-06 10:00 3.61 810 2850 (1974) 55 (1964) 315 68 78 104 106 194 344 461 728 883
2019-12-06 09:00 3.62 815 2850 (1974) 55 (1964) 315 68 78 104 106 194 344 461 728 883
2019-12-06 08:00 3.60 804 2850 (1974) 55 (1964) 315 68 78 104 106 194 344 461 728 883
2019-12-06 07:00 3.64 825 2850 (1974) 55 (1964) 315 68 78 104 106 194 344 461 728 883
2019-12-06 06:00 3.61 810 2850 (1974) 55 (1964) 315 68 78 104 106 194 344 461 728 883
2019-12-06 05:00 3.62 815 2850 (1974) 55 (1964) 315 68 78 104 106 194 344 461 728 883
2019-12-06 04:00 3.60 804 2850 (1974) 55 (1964) 315 68 78 104 106 194 344 461 728 883
2019-12-06 03:00 3.64 825 2850 (1974) 55 (1964) 315 68 78 104 106 194 344 461 728 883
2019-12-06 02:00 3.60 804 2850 (1974) 55 (1964) 315 68 78 104 106 194 344 461 728 883
2019-12-06 01:00 3.62 815 2850 (1974) 55 (1964) 315 68 78 104 106 194 344 461 728 883
2019-12-06 00:00 3.65 831 2850 (1974) 55 (1964) 315 68 78 104 106 194 344 461 728 883

A total of 174 rows are displayed for years 1942 through 2018.

Trips for Shoal Creek (Missouri), Joplin (07187000)

DateStartEndDistanceConditionDischargeHeightFishingDetails
Click for details2015-05-02 Lime Kiln Water's Edge Total trip distance: 8.7 miles8.7 Good 408 2.86 Fair BLG
KSB
SMB
BLG, KSB, SMB
Edmond, Brian
Edmond, Julian
Ligon, Adalia
Ligon, Day
Ligon, Elseya
McKnight, Don
McKnight, Jen
Edmond, Brian; Edmond, Julian; Ligon, Adalia; Ligon, Day; Ligon, Elseya; McKnight, Don; McKnight, Jen
Shoal Creek seems to switch back and forth between a clear, spring-fed Ozark river and a prairie ditch. The brush piles and log jams made for a moderately technical trip which would probably have been dangerous in high water. Railroad tracks are always nearby and trains are frequent.Shoal Creek seems to switch back and forth between a clear, spring-fed Ozark river and a prairie ditch. The brush piles and log jams made for a moderately technical trip which would probably have been dangerous in high water. Railroad tracks are always nearby and trains are frequent. USGS Gauge Data:
Joplin (07187000)
Discharge: 408
Height: 2.86
<b>USGS Gauge Data:</b></br />Joplin (07187000)<br />Discharge: 408<br />Height: 2.86
Source: EdmondSource: Edmond
Click for details2014-11-08 Lime Kiln Water's Edge Total trip distance: 16.3 miles8.7 Good 240 2.44 Great LMB
KSB
SMB
RB
LMB, KSB, SMB, RB
Fillmore, Brian
Ligon, Day
Fillmore, Brian; Ligon, Day
No notes for this trip<i>No notes for this trip</i> USGS Gauge Data:
Joplin (07187000)
Discharge: 240
Height: 2.44
<b>USGS Gauge Data:</b></br />Joplin (07187000)<br />Discharge: 240<br />Height: 2.44
Source: FillmoreSource: Fillmore
Click for details2014-11-09 Water's Edge Wildcat Total trip distance: 16.3 miles7.6 Good 229 2.41 Good LMB
KSB
SMB
LMB, KSB, SMB
Fillmore, Brian
Fillmore, Rebecca
Javorsek, Rachie
Ligon, Day
Fillmore, Brian; Fillmore, Rebecca; Javorsek, Rachie; Ligon, Day
No notes for this trip<i>No notes for this trip</i> USGS Gauge Data:
Joplin (07187000)
Discharge: 229
Height: 2.41
<b>USGS Gauge Data:</b></br />Joplin (07187000)<br />Discharge: 229<br />Height: 2.41
Source: FillmoreSource: Fillmore
Click for details2016-09-24 Cherry Corner Cherry Corner Total trip distance: 4.0 miles4.0 Good 154 2.00 Fair BLG
LMB
RB
BLG, LMB, RB
Van Someren, TomVan Someren, Tom Water was murky, reminiscent of the DOJ. But the gradient through this section made paddling upstream seem more difficult than other typical Ozark streams. Paddled up to the railroad trestle and floated back.Water was murky, reminiscent of the DOJ. But the gradient through this section made paddling upstream seem more difficult than other typical Ozark streams. Paddled up to the railroad trestle and floated back. USGS Gauge Data:
Joplin (07187000)
Discharge: 154
Height: 2.00
<b>USGS Gauge Data:</b></br />Joplin (07187000)<br />Discharge: 154<br />Height: 2.00
Source: Van SomerenSource: Van Someren

A total of 4 rows are displayed.

Trip Summary for Shoal Creek (Missouri), Joplin (07187000)

Miles29
Trips3
People11
Dates4
Years3
Months3
Rows4
Sources3

Condition Descriptions

Fishing Conditions

Fish Species

Notes

Classic Trip List

The classic River Trips application is still available for use. It is updated with the new system using a data retrofit. It is no longer maintained. The original River Trips application is no longer updated (as of 1 Dec 2016) but can be checked for errors or for the condition of the data before it was converted to the new system.